createdAt,value
2022-08-21T00:01:12.085Z,6.38
2022-08-21T00:03:42.472Z,6.70
2022-08-21T00:06:13.994Z,5.55
2022-08-21T00:08:44.129Z,5.30
2022-08-21T00:11:15.855Z,6.50
2022-08-21T00:13:46.355Z,5.78
2022-08-21T00:16:16.556Z,5.85
2022-08-21T00:18:46.956Z,5.55
2022-08-21T00:21:17.572Z,5.90
2022-08-21T00:23:47.460Z,20.48
2022-08-21T00:26:18.786Z,7.00
2022-08-21T00:28:50.035Z,8.02
2022-08-21T00:31:20.077Z,6.85
2022-08-21T00:33:50.067Z,6.47
2022-08-21T00:36:19.953Z,6.22
2022-08-21T00:38:51.080Z,5.88
2022-08-21T00:41:37.290Z,7.25
2022-08-21T00:44:11.387Z,6.53
2022-08-21T00:46:42.650Z,5.50
2022-08-21T00:49:14.234Z,6.90
2022-08-21T00:51:50.827Z,6.82
2022-08-21T00:54:22.678Z,5.97
2022-08-21T00:56:59.537Z,5.67
2022-08-21T00:59:36.724Z,6.90
2022-08-21T01:02:09.061Z,5.53
2022-08-21T01:04:39.640Z,8.15
2022-08-21T01:07:09.916Z,6.05
2022-08-21T01:09:39.872Z,5.85
2022-08-21T01:12:13.193Z,5.97
2022-08-21T01:14:44.913Z,5.82
2022-08-21T01:17:16.632Z,6.22
2022-08-21T01:19:46.517Z,6.10
2022-08-21T01:22:17.828Z,6.32
2022-08-21T01:24:47.685Z,7.00
2022-08-21T01:27:35.746Z,6.90
2022-08-21T01:30:12.259Z,5.78
2022-08-21T01:32:42.655Z,6.60
2022-08-21T01:35:14.173Z,6.88
2022-08-21T01:37:46.195Z,6.53
2022-08-21T01:40:18.063Z,7.30
2022-08-21T01:42:49.626Z,7.90
2022-08-21T01:45:20.139Z,7.10
2022-08-21T01:47:49.941Z,7.43
2022-08-21T01:50:22.297Z,6.50
2022-08-21T01:52:54.113Z,7.25
2022-08-21T01:55:24.869Z,7.07
2022-08-21T01:57:54.795Z,7.80
2022-08-21T02:00:25.543Z,7.82
2022-08-21T02:02:55.678Z,6.90
2022-08-21T02:05:25.541Z,7.43
2022-08-21T02:07:57.674Z,6.93
2022-08-21T02:10:30.174Z,7.38
2022-08-21T02:13:01.971Z,7.80
2022-08-21T02:15:33.447Z,7.10
2022-08-21T02:18:07.367Z,6.95
2022-08-21T02:20:40.763Z,8.18
2022-08-21T02:23:13.536Z,7.40
2022-08-21T02:25:43.664Z,6.73
2022-08-21T02:28:15.449Z,7.10
2022-08-21T02:30:47.718Z,8.10
2022-08-21T02:33:19.100Z,7.88
2022-08-21T02:35:50.115Z,8.93
2022-08-21T02:38:25.111Z,8.93
2022-08-21T02:40:56.254Z,8.95
2022-08-21T02:43:28.415Z,9.02
2022-08-21T02:46:00.318Z,9.43
2022-08-21T02:48:32.880Z,8.68
2022-08-21T02:51:07.560Z,8.38
2022-08-21T02:53:39.273Z,8.30
2022-08-21T02:56:13.248Z,9.13
2022-08-21T02:58:45.111Z,8.82
2022-08-21T03:01:15.644Z,8.90
2022-08-21T03:03:47.311Z,8.82
2022-08-21T03:06:19.082Z,9.10
2022-08-21T03:08:50.736Z,9.00
2022-08-21T03:11:21.819Z,8.40
2022-08-21T03:13:52.475Z,8.07
2022-08-21T03:16:22.963Z,8.63
2022-08-21T03:18:54.133Z,8.98
2022-08-21T03:21:24.820Z,9.02
2022-08-21T03:23:56.625Z,8.02
2022-08-21T03:26:28.060Z,7.68
2022-08-21T03:28:58.771Z,7.55
2022-08-21T03:31:31.804Z,9.15
2022-08-21T03:34:01.956Z,7.43
2022-08-21T03:36:32.114Z,8.65
2022-08-21T03:39:03.628Z,8.25
2022-08-21T03:41:33.640Z,7.30
2022-08-21T03:44:03.596Z,7.97
2022-08-21T03:46:33.429Z,7.93
2022-08-21T03:49:03.263Z,8.35
2022-08-21T03:51:34.663Z,8.25
2022-08-21T03:54:06.110Z,9.00
2022-08-21T03:56:36.115Z,8.48
2022-08-21T03:59:06.153Z,9.45
2022-08-21T04:01:37.142Z,12.45
2022-08-21T04:04:07.377Z,12.38
2022-08-21T04:06:37.977Z,9.63
2022-08-21T04:09:09.283Z,9.45
2022-08-21T04:11:39.751Z,9.23
2022-08-21T04:14:10.115Z,9.32
2022-08-21T04:16:40.640Z,11.45
2022-08-21T04:19:11.290Z,11.00
2022-08-21T04:21:41.810Z,11.30
2022-08-21T04:24:15.304Z,11.77
2022-08-21T04:26:45.280Z,14.73
2022-08-21T04:29:15.175Z,17.98
2022-08-21T04:31:45.657Z,23.33
2022-08-21T04:34:15.638Z,22.17
2022-08-21T04:36:45.559Z,21.25
2022-08-21T04:39:16.832Z,14.55
2022-08-21T04:41:48.113Z,15.65
2022-08-21T04:44:17.997Z,15.52
2022-08-21T04:46:48.184Z,16.38
2022-08-21T04:49:18.383Z,15.50
2022-08-21T04:52:04.595Z,15.40
2022-08-21T04:54:35.876Z,15.27
2022-08-21T04:57:10.467Z,16.90
2022-08-21T04:59:43.092Z,16.73
2022-08-21T05:02:14.879Z,15.75
2022-08-21T05:04:50.713Z,15.25
2022-08-21T05:07:42.136Z,15.32
2022-08-21T05:10:15.305Z,15.45
2022-08-21T05:12:47.019Z,15.60
2022-08-21T05:15:18.224Z,14.63
2022-08-21T05:17:52.529Z,15.35
2022-08-21T05:20:30.025Z,16.50
2022-08-21T05:23:01.018Z,16.08
2022-08-21T05:25:32.486Z,15.65
2022-08-21T05:28:05.009Z,15.30
2022-08-21T05:30:36.235Z,16.55
2022-08-21T05:33:08.097Z,14.95
2022-08-21T05:35:39.602Z,13.88
2022-08-21T05:38:18.317Z,15.10
2022-08-21T05:40:50.276Z,13.48
2022-08-21T05:43:20.133Z,13.00
2022-08-21T05:45:50.068Z,13.75
2022-08-21T05:48:22.385Z,12.57
2022-08-21T05:50:54.232Z,12.13
2022-08-21T05:53:26.226Z,13.30
2022-08-21T05:55:58.376Z,11.35
2022-08-21T05:58:28.362Z,13.20
2022-08-21T06:00:59.911Z,12.77
2022-08-21T06:03:32.080Z,14.13
2022-08-21T06:06:03.341Z,12.23
2022-08-21T06:08:33.314Z,11.75
2022-08-21T06:11:06.927Z,11.43
2022-08-21T06:13:37.900Z,10.93
2022-08-21T06:16:10.979Z,10.73
2022-08-21T06:18:41.687Z,11.82
2022-08-21T06:21:12.438Z,10.98
2022-08-21T06:23:43.527Z,9.95
2022-08-21T06:26:16.072Z,10.05
2022-08-21T06:28:46.084Z,10.18
2022-08-21T06:31:18.214Z,10.70
2022-08-21T06:33:48.191Z,9.52
2022-08-21T06:36:18.541Z,11.63
2022-08-21T06:38:51.050Z,11.25
2022-08-21T06:41:24.046Z,11.13
2022-08-21T06:43:54.504Z,9.82
2022-08-21T06:46:25.089Z,10.98
2022-08-21T06:48:55.470Z,11.02
2022-08-21T06:51:26.480Z,11.00
2022-08-21T06:53:58.842Z,10.77
2022-08-21T06:56:30.921Z,11.80
2022-08-21T07:01:33.074Z,11.32
2022-08-21T07:04:03.433Z,11.70
2022-08-21T07:06:34.091Z,11.50
2022-08-21T07:09:06.115Z,12.25
2022-08-21T07:11:42.466Z,12.95
2022-08-21T07:14:20.477Z,12.38
2022-08-21T07:16:52.405Z,12.23
2022-08-21T07:19:22.971Z,13.20
2022-08-21T07:21:53.388Z,15.32
2022-08-21T07:24:24.066Z,13.32
2022-08-21T07:26:55.670Z,13.50
2022-08-21T07:29:25.490Z,14.10
2022-08-21T07:31:55.364Z,14.40
2022-08-21T07:34:25.349Z,13.70
2022-08-21T07:36:55.247Z,14.25
2022-08-21T07:39:25.293Z,13.60
2022-08-21T07:41:56.624Z,13.60
2022-08-21T07:44:26.601Z,13.70
2022-08-21T07:46:56.645Z,13.63
2022-08-21T07:49:26.596Z,13.57
2022-08-21T07:51:57.568Z,14.07
2022-08-21T07:54:33.564Z,14.05
2022-08-21T07:57:06.520Z,12.90
2022-08-21T07:59:36.563Z,13.00
2022-08-21T08:02:06.501Z,12.88
2022-08-21T08:04:36.465Z,13.18
2022-08-21T08:07:06.352Z,12.55
2022-08-21T08:09:37.217Z,12.73
2022-08-21T08:12:09.548Z,12.57
2022-08-21T08:14:39.780Z,12.10
2022-08-21T08:17:09.701Z,12.90
2022-08-21T08:19:39.887Z,13.38
2022-08-21T08:22:15.667Z,12.32
2022-08-21T08:24:45.460Z,13.40
2022-08-21T08:27:17.399Z,13.68
2022-08-21T08:29:48.344Z,12.18
2022-08-21T08:32:18.263Z,11.20
2022-08-21T08:34:49.747Z,11.38
2022-08-21T08:37:21.231Z,10.63
2022-08-21T08:39:53.995Z,10.25
2022-08-21T08:42:32.970Z,10.43
2022-08-21T08:45:08.763Z,10.40
2022-08-21T08:47:42.159Z,10.27
2022-08-21T08:52:50.075Z,9.98
2022-08-21T08:55:27.136Z,10.55
2022-08-21T08:57:59.332Z,9.15
2022-08-21T09:00:29.443Z,8.63
2022-08-21T09:03:01.888Z,8.65
2022-08-21T09:05:39.500Z,8.90
2022-08-21T09:08:22.867Z,7.70
2022-08-21T09:11:03.825Z,8.90
2022-08-21T09:13:47.265Z,10.23
2022-08-21T09:16:26.363Z,9.18
2022-08-21T09:19:05.059Z,10.48
2022-08-21T09:21:52.159Z,10.82
2022-08-21T09:24:32.512Z,9.75
2022-08-21T09:27:08.659Z,9.57
2022-08-21T09:29:42.623Z,9.18
2022-08-21T09:32:18.812Z,9.15
2022-08-21T09:35:00.747Z,9.43
2022-08-21T09:37:32.790Z,8.50
2022-08-21T09:40:16.154Z,9.07
2022-08-21T09:42:57.923Z,9.93
2022-08-21T09:45:33.813Z,9.50
2022-08-21T09:48:11.947Z,11.40
2022-08-21T09:50:43.285Z,11.93
2022-08-21T09:53:21.492Z,12.18
2022-08-21T09:56:12.504Z,12.68
2022-08-21T09:58:45.587Z,12.02
2022-08-21T10:04:05.057Z,8.02
2022-08-21T10:06:36.959Z,8.32
2022-08-21T10:09:13.580Z,9.43
2022-08-21T10:11:55.044Z,9.88
2022-08-21T10:14:40.215Z,9.93
2022-08-21T10:17:22.731Z,10.15
2022-08-21T10:20:01.282Z,9.15
2022-08-21T10:22:40.605Z,9.10
2022-08-21T10:25:20.022Z,8.80
2022-08-21T10:27:59.259Z,9.27
2022-08-21T10:30:41.016Z,8.55
2022-08-21T10:33:30.685Z,8.65
2022-08-21T10:36:09.104Z,8.75
2022-08-21T10:39:17.778Z,9.32
2022-08-21T10:42:08.539Z,8.70
2022-08-21T10:44:47.449Z,9.02
2022-08-21T10:47:22.691Z,8.60
2022-08-21T10:50:05.309Z,8.52
2022-08-21T10:52:53.631Z,9.80
2022-08-21T10:55:27.894Z,11.23
2022-08-21T10:58:00.792Z,9.85
2022-08-21T11:00:37.596Z,9.20
2022-08-21T11:03:13.100Z,9.82
2022-08-21T11:05:51.139Z,10.18
2022-08-21T11:08:32.328Z,10.80
2022-08-21T11:11:08.823Z,11.65
2022-08-21T11:13:43.652Z,11.43
2022-08-21T11:16:23.948Z,11.23
2022-08-21T11:19:02.466Z,14.23
2022-08-21T11:21:40.631Z,12.05
2022-08-21T11:24:29.085Z,14.15
2022-08-21T11:27:05.590Z,14.45
2022-08-21T11:29:41.107Z,14.13
2022-08-21T11:32:41.287Z,13.82
2022-08-21T11:35:26.029Z,11.90
2022-08-21T11:38:14.498Z,11.60
2022-08-21T11:41:01.426Z,12.55
2022-08-21T11:43:39.797Z,13.57
2022-08-21T11:46:19.836Z,14.25
2022-08-21T11:49:08.738Z,15.60
2022-08-21T11:51:44.871Z,15.70
2022-08-21T11:54:26.887Z,14.52
2022-08-21T11:57:03.888Z,24.40
2022-08-21T11:59:48.186Z,30.75
2022-08-21T12:02:22.159Z,16.80
2022-08-21T12:04:57.610Z,17.00
2022-08-21T12:07:37.251Z,14.18
2022-08-21T12:10:12.813Z,16.90
2022-08-21T12:12:46.123Z,17.30
2022-08-21T12:15:29.911Z,16.95
2022-08-21T12:18:06.627Z,15.55
2022-08-21T12:20:50.050Z,16.80
2022-08-21T12:23:29.607Z,17.00
2022-08-21T12:26:29.711Z,18.33
2022-08-21T12:29:13.958Z,16.02
2022-08-21T12:31:56.456Z,18.23
2022-08-21T12:34:34.892Z,20.77
2022-08-21T12:37:08.794Z,20.85
2022-08-21T12:39:48.375Z,17.65
2022-08-21T12:42:23.172Z,17.65
2022-08-21T12:45:04.867Z,24.73
2022-08-21T12:47:48.351Z,18.35
2022-08-21T12:50:22.441Z,16.25
2022-08-21T12:52:59.334Z,13.90
2022-08-21T12:55:31.650Z,12.95
2022-08-21T12:58:02.447Z,13.68
2022-08-21T13:00:33.728Z,15.50
2022-08-21T13:03:03.915Z,15.30
2022-08-21T13:05:37.775Z,15.32
2022-08-21T13:08:10.256Z,14.63
2022-08-21T13:10:42.763Z,16.20
2022-08-21T13:13:25.036Z,15.82
2022-08-21T13:16:02.590Z,15.52
2022-08-21T13:18:35.917Z,17.33
2022-08-21T13:21:08.581Z,15.02
2022-08-21T13:23:38.515Z,15.77
2022-08-21T13:26:18.615Z,15.88
2022-08-21T13:28:50.524Z,15.13
2022-08-21T13:31:26.992Z,15.82
2022-08-21T13:33:57.674Z,15.05
2022-08-21T13:36:33.421Z,14.70
2022-08-21T13:39:05.169Z,15.82
2022-08-21T13:41:37.921Z,14.63
2022-08-21T13:44:20.631Z,14.70
2022-08-21T13:46:52.698Z,14.05
2022-08-21T13:49:28.836Z,14.20
2022-08-21T13:51:58.804Z,14.90
2022-08-21T13:54:35.809Z,14.50
2022-08-21T13:57:06.224Z,15.73
2022-08-21T13:59:38.377Z,14.10
2022-08-21T14:02:16.119Z,13.68
2022-08-21T14:04:54.124Z,15.00
2022-08-21T14:07:29.740Z,15.13
2022-08-21T14:10:03.339Z,15.10
2022-08-21T14:12:40.250Z,15.15
2022-08-21T14:15:14.628Z,15.75
2022-08-21T14:17:47.318Z,14.80
2022-08-21T14:20:29.926Z,16.85
2022-08-21T14:23:00.448Z,14.35
2022-08-21T14:25:40.812Z,14.98
2022-08-21T14:28:22.055Z,13.97
2022-08-21T14:31:14.556Z,13.75
2022-08-21T14:33:46.541Z,15.00
2022-08-21T14:36:16.776Z,13.93
2022-08-21T14:38:47.014Z,13.82
2022-08-21T14:41:20.537Z,13.60
2022-08-21T14:43:55.776Z,13.45
2022-08-21T14:46:36.496Z,13.30
2022-08-21T14:49:17.297Z,12.05
2022-08-21T14:51:54.417Z,12.18
2022-08-21T14:54:29.587Z,11.52
2022-08-21T14:57:05.696Z,12.55
2022-08-21T14:59:36.930Z,12.57
2022-08-21T15:02:08.083Z,13.00
2022-08-21T15:04:39.796Z,13.18
2022-08-21T15:07:09.916Z,13.50
2022-08-21T15:09:40.001Z,13.93
2022-08-21T15:12:10.931Z,13.35
2022-08-21T15:14:44.156Z,14.30
2022-08-21T15:17:14.282Z,14.77
2022-08-21T15:19:45.600Z,15.60
2022-08-21T15:22:19.055Z,16.63
2022-08-21T15:24:56.975Z,15.80
2022-08-21T15:27:27.094Z,17.05
2022-08-21T15:29:57.648Z,17.90
2022-08-21T15:32:31.185Z,16.15
2022-08-21T15:35:02.561Z,16.38
2022-08-21T15:37:33.407Z,16.48
2022-08-21T15:40:03.540Z,16.13
2022-08-21T15:42:34.084Z,18.27
2022-08-21T15:45:05.525Z,15.88
2022-08-21T15:47:38.968Z,15.63
2022-08-21T15:50:12.499Z,16.30
2022-08-21T15:55:13.461Z,14.63
2022-08-21T15:57:58.211Z,14.35
2022-08-21T16:00:29.516Z,14.02
2022-08-21T16:03:01.289Z,14.02
2022-08-21T16:05:33.602Z,14.50
2022-08-21T16:08:03.673Z,13.25
2022-08-21T16:10:33.833Z,13.10
2022-08-21T16:13:07.184Z,12.30
2022-08-21T16:15:37.802Z,13.65
2022-08-21T16:18:07.722Z,13.48
2022-08-21T16:20:39.682Z,12.18
2022-08-21T16:23:09.792Z,12.48
2022-08-21T16:25:41.979Z,12.82
2022-08-21T16:28:19.221Z,13.27
2022-08-21T16:30:51.838Z,12.68
2022-08-21T16:33:26.636Z,13.25
2022-08-21T16:35:58.205Z,12.60
2022-08-21T16:38:29.189Z,12.88
2022-08-21T16:40:59.581Z,13.25
2022-08-21T16:43:31.199Z,13.90
2022-08-21T16:46:04.078Z,13.85
2022-08-21T16:48:34.018Z,14.27
2022-08-21T16:51:06.181Z,13.57
2022-08-21T16:53:36.401Z,13.82
2022-08-21T16:56:08.240Z,13.60
2022-08-21T16:58:41.287Z,13.15
2022-08-21T17:01:16.156Z,16.77
2022-08-21T17:03:48.704Z,13.77
2022-08-21T17:06:21.111Z,14.50
2022-08-21T17:08:52.662Z,14.48
2022-08-21T17:11:37.524Z,13.95
2022-08-21T17:14:12.189Z,14.35
2022-08-21T17:19:16.031Z,13.25
2022-08-21T17:21:47.503Z,14.40
2022-08-21T17:24:17.633Z,14.55
2022-08-21T17:26:49.140Z,14.98
2022-08-21T17:29:22.063Z,15.25
2022-08-21T17:31:51.939Z,15.00
2022-08-21T17:34:22.201Z,14.93
2022-08-21T17:36:54.126Z,14.80
2022-08-21T17:39:26.555Z,15.63
2022-08-21T17:42:00.181Z,13.38
2022-08-21T17:44:30.380Z,14.10
2022-08-21T17:47:01.095Z,14.95
2022-08-21T17:49:31.037Z,14.25
2022-08-21T17:52:02.424Z,15.10
2022-08-21T17:54:32.841Z,16.02
2022-08-21T17:57:03.118Z,14.57
2022-08-21T17:59:34.185Z,15.38
2022-08-21T18:02:09.739Z,14.57
2022-08-21T18:04:50.638Z,15.02
2022-08-21T18:07:31.847Z,15.55
2022-08-21T18:10:03.648Z,16.92
2022-08-21T18:12:34.321Z,15.98
2022-08-21T18:15:08.194Z,16.73
2022-08-21T18:17:38.841Z,17.58
2022-08-21T18:20:10.183Z,17.55
2022-08-21T18:22:41.772Z,18.08
2022-08-21T18:25:12.342Z,18.10
2022-08-21T18:27:45.737Z,17.33
2022-08-21T18:30:18.593Z,17.73
2022-08-21T18:32:49.703Z,16.38
2022-08-21T18:35:19.782Z,17.13
2022-08-21T18:37:51.105Z,16.02
2022-08-21T18:40:21.541Z,16.17
2022-08-21T18:42:55.535Z,16.67
2022-08-21T18:45:26.465Z,16.20
2022-08-21T18:47:58.266Z,15.60
2022-08-21T18:50:29.843Z,15.35
2022-08-21T18:53:01.178Z,14.40
2022-08-21T18:55:32.702Z,14.30
2022-08-21T18:58:03.314Z,14.90
2022-08-21T19:00:44.307Z,15.80
2022-08-21T19:03:15.396Z,14.52
2022-08-21T19:05:52.419Z,15.02
2022-08-21T19:08:27.291Z,14.45
2022-08-21T19:11:02.414Z,14.13
2022-08-21T19:13:32.912Z,14.02
2022-08-21T19:16:05.413Z,14.88
2022-08-21T19:18:42.195Z,14.85
2022-08-21T19:21:12.703Z,13.98
2022-08-21T19:23:52.661Z,14.63
2022-08-21T19:26:24.716Z,15.23
2022-08-21T19:28:59.602Z,14.00
2022-08-21T19:31:32.668Z,14.35
2022-08-21T19:34:07.051Z,14.88
2022-08-21T19:36:37.942Z,15.25
2022-08-21T19:39:11.012Z,15.63
2022-08-21T19:41:45.745Z,15.70
2022-08-21T19:44:23.519Z,15.25
2022-08-21T19:46:54.963Z,15.18
2022-08-21T19:49:33.247Z,15.98
2022-08-21T19:52:12.872Z,15.30
2022-08-21T19:54:45.485Z,16.15
2022-08-21T19:57:15.927Z,14.85
2022-08-21T19:59:47.341Z,16.15
2022-08-21T20:02:19.798Z,14.77
2022-08-21T20:04:54.096Z,15.75
2022-08-21T20:07:26.855Z,16.38
2022-08-21T20:09:58.548Z,15.80
2022-08-21T20:12:29.044Z,15.98
2022-08-21T20:15:00.176Z,14.57
2022-08-21T20:17:30.111Z,16.65
2022-08-21T20:20:00.261Z,15.50
2022-08-21T20:22:31.288Z,15.07
2022-08-21T20:25:03.811Z,15.30
2022-08-21T20:27:36.396Z,15.15
2022-08-21T20:30:12.727Z,14.70
2022-08-21T20:32:43.729Z,14.77
2022-08-21T20:35:13.788Z,15.05
2022-08-21T20:37:43.701Z,14.75
2022-08-21T20:40:16.708Z,15.48
2022-08-21T20:42:53.853Z,14.18
2022-08-21T20:45:26.152Z,15.83
2022-08-21T20:48:02.746Z,14.88
2022-08-21T20:50:38.332Z,15.43
2022-08-21T20:53:15.387Z,15.30
2022-08-21T20:55:50.279Z,14.45
2022-08-21T20:58:30.195Z,15.57
2022-08-21T21:01:04.417Z,15.45
2022-08-21T21:03:39.197Z,14.27
2022-08-21T21:06:17.461Z,14.38
2022-08-21T21:08:51.480Z,15.15
2022-08-21T21:11:26.217Z,13.80
2022-08-21T21:14:01.481Z,14.13
2022-08-21T21:16:37.485Z,13.95
2022-08-21T21:19:12.628Z,13.50
2022-08-21T21:21:51.497Z,12.70
2022-08-21T21:24:51.315Z,11.93
2022-08-21T21:27:29.540Z,12.55
2022-08-21T21:30:12.187Z,10.27
2022-08-21T21:32:45.401Z,10.80
2022-08-21T21:35:22.354Z,10.52
2022-08-21T21:38:10.931Z,11.18
2022-08-21T21:40:53.952Z,10.20
2022-08-21T21:43:55.946Z,10.05
2022-08-21T21:46:35.015Z,9.73
2022-08-21T21:49:19.454Z,10.10
2022-08-21T21:52:00.559Z,9.40
2022-08-21T21:54:54.916Z,10.93
2022-08-21T21:57:39.643Z,9.32
2022-08-21T22:00:17.394Z,10.43
2022-08-21T22:03:00.154Z,10.27
2022-08-21T22:05:51.012Z,11.07
2022-08-21T22:08:31.925Z,10.35
2022-08-21T22:11:08.682Z,10.88
2022-08-21T22:13:46.544Z,9.88
2022-08-21T22:16:19.598Z,9.70
2022-08-21T22:19:03.078Z,9.30
2022-08-21T22:21:39.961Z,10.05
2022-08-21T22:24:17.839Z,10.02
2022-08-21T22:26:51.879Z,10.35
2022-08-21T22:32:06.823Z,9.82
2022-08-21T22:34:37.146Z,10.20
2022-08-21T22:37:11.872Z,9.27
2022-08-21T22:39:46.055Z,9.37
2022-08-21T22:45:21.948Z,9.07
2022-08-21T22:47:54.595Z,9.02
2022-08-21T22:50:32.503Z,9.77
2022-08-21T22:53:06.863Z,9.52
2022-08-21T22:55:43.788Z,10.10
2022-08-21T22:58:20.431Z,9.73
2022-08-21T23:00:56.731Z,10.07
2022-08-21T23:03:33.719Z,11.07
2022-08-21T23:06:12.695Z,9.98
2022-08-21T23:11:40.665Z,9.90
2022-08-21T23:14:14.711Z,9.73
2022-08-21T23:16:57.525Z,11.13
2022-08-21T23:19:39.237Z,10.70
2022-08-21T23:22:28.377Z,11.23
2022-08-21T23:25:12.596Z,10.23
2022-08-21T23:27:56.174Z,10.70
2022-08-21T23:30:40.789Z,11.02
2022-08-21T23:33:26.887Z,9.93
2022-08-21T23:36:25.059Z,9.85
2022-08-21T23:39:11.667Z,10.50
2022-08-21T23:41:47.024Z,10.20
2022-08-21T23:44:33.462Z,10.63
2022-08-21T23:47:15.421Z,10.02
2022-08-21T23:49:54.010Z,10.25
2022-08-21T23:52:37.550Z,10.98
2022-08-21T23:55:44.145Z,10.95
2022-08-21T23:58:30.525Z,11.50
